Terminal Aerodrome Forecast
Issued by NWS

Home | Current Version | Previous Version | Text Only | Print | Product List | Glossary On
Versions: 1 2 3 4 5 6 7 8 9 10 11 12 13
000
FTUS43 KSGF 172300
TAFJLN
TAF
KJLN 172331Z 1800/1824 36007KT P6SM OVC090
     FM180200 03004KT P6SM BKN090
     FM180600 06003KT P6SM SCT090
     FM181100 06003KT 4SM BR SKC
     FM181300 08005KT P6SM FEW045=

USA.gov is the U.S. government's official web portal to all federal, state and local government web resources and services.